createdAt,value
2022-12-01T00:01:23.238Z,1.83
2022-12-01T00:03:50.644Z,1.74
2022-12-01T00:06:20.670Z,1.72
2022-12-01T00:09:07.588Z,1.72
2022-12-01T00:11:36.475Z,1.64
2022-12-01T00:14:04.277Z,1.67
2022-12-01T00:16:31.778Z,1.62
2022-12-01T00:18:59.180Z,1.78
2022-12-01T00:21:27.413Z,1.32
2022-12-01T00:23:56.742Z,1.77
2022-12-01T00:26:25.266Z,1.69
2022-12-01T00:28:54.701Z,1.44
2022-12-01T00:31:22.668Z,1.54
2022-12-01T00:33:50.559Z,1.65
2022-12-01T00:36:18.190Z,1.56
2022-12-01T00:38:46.259Z,1.85
2022-12-01T00:41:13.820Z,1.55
2022-12-01T00:43:41.372Z,1.67
2022-12-01T00:46:08.805Z,1.53
2022-12-01T00:48:36.141Z,1.15
2022-12-01T00:51:03.732Z,1.79
2022-12-01T00:53:31.141Z,1.52
2022-12-01T00:55:58.415Z,1.62
2022-12-01T00:58:25.871Z,1.45
2022-12-01T01:01:01.410Z,1.66
2022-12-01T01:03:29.593Z,1.67
2022-12-01T01:05:56.987Z,1.55
2022-12-01T01:08:24.254Z,1.44
2022-12-01T01:10:51.496Z,1.55
2022-12-01T01:13:19.008Z,1.46
2022-12-01T01:15:46.302Z,1.54
2022-12-01T01:18:13.642Z,1.40
2022-12-01T01:20:40.965Z,1.36
2022-12-01T01:23:08.482Z,1.42
2022-12-01T01:25:35.869Z,1.49
2022-12-01T01:28:03.379Z,1.40
2022-12-01T01:30:30.735Z,1.54
2022-12-01T01:32:59.092Z,1.40
2022-12-01T01:35:27.107Z,1.52
2022-12-01T01:37:54.604Z,1.54
2022-12-01T01:40:22.071Z,1.60
2022-12-01T01:42:49.393Z,1.63
2022-12-01T01:45:29.719Z,1.65
2022-12-01T01:48:00.022Z,1.56
2022-12-01T01:50:28.992Z,1.63
2022-12-01T01:53:01.313Z,1.41
2022-12-01T01:55:30.233Z,1.57
2022-12-01T01:57:57.889Z,1.40
2022-12-01T02:00:25.516Z,1.58
2022-12-01T02:02:54.041Z,1.56
2022-12-01T02:05:24.792Z,1.66
2022-12-01T02:07:55.247Z,1.45
2022-12-01T02:10:38.032Z,1.57
2022-12-01T02:13:55.788Z,1.61
2022-12-01T02:16:49.642Z,1.49
2022-12-01T02:19:56.012Z,1.65
2022-12-01T02:22:54.452Z,1.59
2022-12-01T02:25:37.986Z,1.65
2022-12-01T02:28:23.946Z,1.61
2022-12-01T02:30:57.062Z,1.63
2022-12-01T02:33:40.397Z,1.60
2022-12-01T02:36:13.775Z,1.66
2022-12-01T02:38:47.471Z,1.55
2022-12-01T02:41:25.249Z,1.72
2022-12-01T02:44:20.931Z,1.44
2022-12-01T02:46:59.666Z,1.57
2022-12-01T02:49:32.235Z,1.27
2022-12-01T02:52:00.939Z,1.39
2022-12-01T02:54:31.840Z,1.67
2022-12-01T02:56:59.232Z,1.84
2022-12-01T02:59:26.600Z,1.58
2022-12-01T03:02:42.338Z,1.69
2022-12-01T03:05:24.230Z,1.60
2022-12-01T03:08:13.906Z,1.67
2022-12-01T03:10:48.719Z,1.41
2022-12-01T03:13:53.013Z,1.66
2022-12-01T03:16:31.521Z,1.59
2022-12-01T03:19:44.177Z,1.69
2022-12-01T03:22:23.198Z,1.68
2022-12-01T03:24:53.497Z,1.66
2022-12-01T03:27:27.213Z,1.79
2022-12-01T03:29:58.130Z,1.70
2022-12-01T03:32:33.798Z,1.64
2022-12-01T03:35:10.882Z,1.56
2022-12-01T03:37:44.248Z,1.45
2022-12-01T03:40:18.166Z,1.51
2022-12-01T03:42:52.598Z,1.60
2022-12-01T03:45:42.445Z,1.57
2022-12-01T03:48:10.181Z,1.58
2022-12-01T03:50:54.414Z,1.56
2022-12-01T03:53:27.420Z,1.60
2022-12-01T03:56:02.971Z,1.49
2022-12-01T03:58:45.234Z,1.49
2022-12-01T04:01:13.113Z,1.52
2022-12-01T04:03:40.757Z,1.26
2022-12-01T04:06:08.110Z,1.47
2022-12-01T04:08:37.557Z,1.73
2022-12-01T04:11:29.460Z,1.45
2022-12-01T04:13:59.661Z,1.46
2022-12-01T04:16:27.071Z,1.25
2022-12-01T04:18:54.456Z,1.33
2022-12-01T04:21:21.786Z,1.39
2022-12-01T04:24:01.157Z,1.30
2022-12-01T04:26:30.476Z,1.20
2022-12-01T04:29:01.439Z,1.30
2022-12-01T04:31:29.705Z,1.33
2022-12-01T04:33:59.040Z,1.08
2022-12-01T04:36:29.917Z,1.22
2022-12-01T04:38:57.479Z,1.15
2022-12-01T04:41:24.882Z,1.18
2022-12-01T04:43:56.008Z,1.18
2022-12-01T04:46:24.377Z,1.08
2022-12-01T04:48:51.950Z,1.17
2022-12-01T04:51:21.303Z,1.04
2022-12-01T04:53:49.939Z,1.01
2022-12-01T04:56:17.464Z,1.20
2022-12-01T04:58:45.803Z,1.12
2022-12-01T05:01:16.202Z,1.12
2022-12-01T05:03:46.771Z,0.98
2022-12-01T05:06:18.202Z,0.97
2022-12-01T05:08:46.173Z,0.85
2022-12-01T05:11:14.595Z,0.98
2022-12-01T05:13:44.770Z,1.07
2022-12-01T05:16:19.548Z,0.79
2022-12-01T05:19:24.815Z,0.98
2022-12-01T05:21:52.502Z,0.81
2022-12-01T05:24:21.199Z,0.70
2022-12-01T05:26:49.211Z,0.70
2022-12-01T05:29:16.653Z,0.54
2022-12-01T05:31:45.904Z,0.48
2022-12-01T05:34:13.457Z,0.23
2022-12-01T05:36:40.920Z,0.19
2022-12-01T05:39:08.324Z,0.36
2022-12-01T05:41:35.676Z,0.25
2022-12-01T05:44:02.997Z,0.27
2022-12-01T05:46:30.345Z,0.07
2022-12-01T05:48:57.640Z,0.35
2022-12-01T05:51:24.971Z,0.34
2022-12-01T05:53:52.276Z,0.38
2022-12-01T05:56:19.729Z,0.41
2022-12-01T05:58:50.125Z,0.31
2022-12-01T06:01:17.661Z,0.49
2022-12-01T06:03:45.047Z,0.11
2022-12-01T06:06:12.399Z,0.35
2022-12-01T06:08:39.807Z,0.32
2022-12-01T06:11:07.118Z,0.45
2022-12-01T06:13:34.484Z,0.55
2022-12-01T06:16:04.662Z,0.64
2022-12-01T06:18:34.852Z,0.95
2022-12-01T06:21:03.053Z,0.68
2022-12-01T06:23:30.866Z,0.51
2022-12-01T06:25:58.746Z,0.73
2022-12-01T06:28:26.148Z,0.53
2022-12-01T06:30:56.636Z,0.58
2022-12-01T06:33:28.566Z,0.32
2022-12-01T06:36:04.705Z,0.66
2022-12-01T06:38:34.182Z,0.58
2022-12-01T06:41:01.833Z,0.80
2022-12-01T06:43:29.932Z,0.55
2022-12-01T06:46:01.698Z,0.34
2022-12-01T06:48:31.566Z,0.90
2022-12-01T06:51:00.194Z,0.70
2022-12-01T06:53:29.056Z,0.75
2022-12-01T06:56:01.105Z,0.88
2022-12-01T06:58:28.766Z,0.64
2022-12-01T07:00:57.426Z,0.66
2022-12-01T07:03:24.934Z,0.80
2022-12-01T07:06:00.546Z,0.89
2022-12-01T07:08:32.394Z,0.76
2022-12-01T07:11:07.604Z,0.78
2022-12-01T07:13:35.869Z,0.84
2022-12-01T07:16:03.731Z,0.92
2022-12-01T07:18:32.182Z,0.95
2022-12-01T07:21:11.835Z,0.83
2022-12-01T07:23:39.983Z,0.58
2022-12-01T07:26:13.104Z,0.74
2022-12-01T07:28:40.938Z,1.10
2022-12-01T07:31:11.084Z,1.04
2022-12-01T07:33:40.149Z,1.09
2022-12-01T07:36:08.476Z,1.11
2022-12-01T07:38:37.617Z,1.16
2022-12-01T07:41:11.826Z,1.26
2022-12-01T07:43:39.668Z,1.25
2022-12-01T07:46:10.554Z,1.38
2022-12-01T07:48:39.220Z,1.35
2022-12-01T07:51:12.386Z,1.36
2022-12-01T07:53:39.730Z,1.10
2022-12-01T07:56:08.965Z,1.27
2022-12-01T07:58:37.192Z,1.40
2022-12-01T08:01:10.129Z,1.38
2022-12-01T08:03:37.980Z,1.38
2022-12-01T08:06:06.313Z,1.10
2022-12-01T08:08:35.599Z,1.36
2022-12-01T08:11:10.176Z,1.68
2022-12-01T08:13:38.997Z,1.56
2022-12-01T08:16:07.990Z,1.61
2022-12-01T08:18:36.523Z,1.62
2022-12-01T08:21:04.786Z,1.62
2022-12-01T08:23:32.415Z,1.59
2022-12-01T08:26:13.037Z,1.83
2022-12-01T08:28:41.244Z,1.81
2022-12-01T08:31:19.776Z,2.07
2022-12-01T08:33:48.826Z,2.06
2022-12-01T08:36:16.659Z,2.18
2022-12-01T08:38:45.530Z,2.55
2022-12-01T08:41:13.580Z,2.39
2022-12-01T08:44:00.333Z,2.20
2022-12-01T08:46:34.168Z,2.42
2022-12-01T08:49:02.459Z,2.50
2022-12-01T08:51:30.254Z,2.21
2022-12-01T08:53:59.771Z,2.41
2022-12-01T08:56:33.918Z,3.02
2022-12-01T08:59:01.483Z,2.78
2022-12-01T09:01:29.407Z,3.22
2022-12-01T09:04:08.765Z,3.49
2022-12-01T09:06:41.929Z,3.45
2022-12-01T09:09:11.690Z,3.75
2022-12-01T09:11:45.977Z,3.71
2022-12-01T09:14:15.530Z,3.12
2022-12-01T09:16:44.499Z,3.20
2022-12-01T09:19:13.427Z,3.99
2022-12-01T09:21:42.709Z,4.34
2022-12-01T09:24:11.055Z,4.46
2022-12-01T09:26:38.442Z,4.64
2022-12-01T09:29:09.015Z,4.57
2022-12-01T09:31:37.994Z,4.57
2022-12-01T09:34:09.150Z,5.13
2022-12-01T09:36:37.424Z,5.31
2022-12-01T09:39:09.122Z,5.24
2022-12-01T09:41:57.758Z,4.95
2022-12-01T09:44:34.896Z,5.04
2022-12-01T09:47:28.948Z,5.12
2022-12-01T09:50:24.043Z,5.15
2022-12-01T09:53:00.404Z,5.39
2022-12-01T09:55:30.403Z,5.19
2022-12-01T09:57:59.501Z,5.33
2022-12-01T10:00:32.646Z,5.29
2022-12-01T10:03:09.808Z,5.19
2022-12-01T10:06:24.989Z,5.06
2022-12-01T10:08:43.360Z,4.81
2022-12-01T10:11:27.523Z,4.88
2022-12-01T10:13:54.931Z,4.89
2022-12-01T10:16:38.725Z,4.66
2022-12-01T10:19:22.096Z,4.84
2022-12-01T10:22:12.696Z,4.77
2022-12-01T10:25:06.302Z,4.89
2022-12-01T10:27:40.941Z,4.76
2022-12-01T10:30:15.790Z,4.82
2022-12-01T10:32:55.177Z,4.81
2022-12-01T10:35:27.290Z,4.69
2022-12-01T10:38:06.877Z,4.72
2022-12-01T10:40:35.358Z,5.04
2022-12-01T10:43:03.088Z,4.90
2022-12-01T10:45:44.042Z,5.35
2022-12-01T10:48:15.711Z,5.49
2022-12-01T10:50:55.616Z,5.53
2022-12-01T10:53:30.670Z,5.64
2022-12-01T10:55:59.830Z,5.77
2022-12-01T10:58:27.451Z,5.64
2022-12-01T11:01:00.108Z,5.60
2022-12-01T11:03:31.750Z,5.56
2022-12-01T11:06:02.088Z,5.88
2022-12-01T11:08:29.368Z,5.90
2022-12-01T11:10:56.891Z,5.94
2022-12-01T11:13:30.960Z,5.87
2022-12-01T11:16:01.595Z,5.87
2022-12-01T11:18:39.665Z,5.89
2022-12-01T11:21:15.996Z,5.95
2022-12-01T11:23:49.006Z,5.89
2022-12-01T11:26:32.245Z,5.85
2022-12-01T11:29:07.962Z,5.96
2022-12-01T11:31:48.858Z,5.94
2022-12-01T11:34:27.490Z,6.09
2022-12-01T11:37:00.568Z,6.07
2022-12-01T11:39:32.492Z,6.07
2022-12-01T11:42:04.332Z,5.91
2022-12-01T11:44:50.929Z,6.07
2022-12-01T11:47:25.501Z,6.18
2022-12-01T11:49:58.642Z,6.21
2022-12-01T11:52:31.941Z,6.13
2022-12-01T11:55:20.730Z,6.13
2022-12-01T11:57:50.727Z,6.17
2022-12-01T12:00:24.539Z,6.11
2022-12-01T12:02:54.901Z,6.11
2022-12-01T12:06:01.377Z,6.04
2022-12-01T12:09:02.303Z,6.16
2022-12-01T12:12:16.651Z,6.26
2022-12-01T12:14:57.171Z,5.88
2022-12-01T12:17:50.227Z,6.25
2022-12-01T12:20:42.636Z,6.32
2022-12-01T12:23:31.986Z,6.29
2022-12-01T12:26:27.634Z,6.05
2022-12-01T12:29:15.121Z,5.84
2022-12-01T12:32:08.812Z,5.79
2022-12-01T12:34:54.497Z,5.79
2022-12-01T12:37:43.152Z,5.77
2022-12-01T12:40:22.521Z,5.78
2022-12-01T12:43:14.843Z,6.11
2022-12-01T12:46:19.550Z,5.98
2022-12-01T12:49:23.408Z,6.34
2022-12-01T12:52:17.520Z,6.24
2022-12-01T12:55:11.385Z,6.06
2022-12-01T12:57:45.791Z,5.94
2022-12-01T13:00:13.147Z,6.00
2022-12-01T13:02:42.281Z,5.69
2022-12-01T13:05:21.076Z,5.73
2022-12-01T13:08:03.997Z,5.79
2022-12-01T13:10:42.823Z,5.55
2022-12-01T13:13:19.048Z,5.74
2022-12-01T13:15:50.584Z,5.43
2022-12-01T13:18:37.590Z,5.51
2022-12-01T13:21:06.049Z,5.43
2022-12-01T13:23:36.501Z,5.38
2022-12-01T13:26:08.190Z,5.45
2022-12-01T13:28:55.369Z,5.50
2022-12-01T13:31:23.440Z,5.38
2022-12-01T13:33:58.249Z,5.46
2022-12-01T13:39:20.744Z,5.50
2022-12-01T13:42:00.135Z,5.37
2022-12-01T13:44:30.693Z,5.45
2022-12-01T13:47:09.774Z,5.60
2022-12-01T13:49:58.451Z,5.52
2022-12-01T13:52:32.265Z,5.31
2022-12-01T13:55:08.398Z,5.43
2022-12-01T13:57:44.790Z,5.29
2022-12-01T14:00:27.040Z,5.23
2022-12-01T14:03:13.091Z,5.14
2022-12-01T14:05:40.633Z,5.05
2022-12-01T14:08:23.468Z,4.89
2022-12-01T14:10:58.640Z,4.97
2022-12-01T14:13:28.214Z,4.63
2022-12-01T14:16:03.918Z,4.55
2022-12-01T14:18:33.153Z,4.65
2022-12-01T14:21:04.564Z,4.52
2022-12-01T14:23:36.983Z,4.32
2022-12-01T14:26:16.029Z,4.13
2022-12-01T14:28:55.749Z,4.19
2022-12-01T14:31:25.046Z,3.97
2022-12-01T14:33:57.068Z,3.74
2022-12-01T14:36:24.352Z,3.99
2022-12-01T14:38:57.499Z,3.94
2022-12-01T14:41:26.389Z,3.85
2022-12-01T14:44:05.223Z,3.85
2022-12-01T14:46:41.256Z,3.69
2022-12-01T14:49:20.227Z,3.45
2022-12-01T14:51:51.192Z,3.50
2022-12-01T14:54:26.323Z,3.52
2022-12-01T14:57:00.201Z,3.53
2022-12-01T14:59:31.374Z,3.46
2022-12-01T15:02:08.977Z,3.27
2022-12-01T15:05:13.930Z,3.28
2022-12-01T15:07:46.279Z,3.08
2022-12-01T15:10:16.456Z,3.16
2022-12-01T15:12:43.859Z,2.97
2022-12-01T15:15:24.350Z,3.02
2022-12-01T15:17:55.448Z,2.91
2022-12-01T15:20:33.290Z,2.91
2022-12-01T15:23:08.787Z,2.78
2022-12-01T15:25:37.135Z,2.85
2022-12-01T15:28:12.579Z,2.78
2022-12-01T15:30:43.102Z,2.76
2022-12-01T15:33:27.743Z,2.58
2022-12-01T15:35:58.795Z,2.60
2022-12-01T15:38:31.218Z,2.52
2022-12-01T15:41:27.773Z,2.76
2022-12-01T15:44:00.723Z,2.60
2022-12-01T15:46:30.660Z,2.54
2022-12-01T15:49:16.607Z,2.77
2022-12-01T15:51:50.755Z,2.62
2022-12-01T15:54:23.223Z,2.73
2022-12-01T15:56:56.107Z,2.74
2022-12-01T15:59:44.541Z,2.69
2022-12-01T16:02:33.549Z,2.68
2022-12-01T16:05:13.047Z,2.68
2022-12-01T16:10:32.978Z,2.51
2022-12-01T16:13:40.220Z,2.43
2022-12-01T16:16:23.006Z,2.25
2022-12-01T16:18:58.298Z,2.30
2022-12-01T16:21:26.505Z,1.95
2022-12-01T16:24:05.052Z,2.25
2022-12-01T16:26:33.961Z,2.19
2022-12-01T16:29:02.585Z,1.98
2022-12-01T16:31:29.984Z,2.22
2022-12-01T16:34:13.784Z,2.15
2022-12-01T16:36:46.485Z,2.08
2022-12-01T16:39:14.748Z,2.02
2022-12-01T16:41:46.981Z,1.96
2022-12-01T16:44:28.688Z,1.92
2022-12-01T16:46:56.786Z,1.87
2022-12-01T16:49:24.179Z,1.72
2022-12-01T16:51:56.374Z,1.61
2022-12-01T16:54:24.397Z,1.93
2022-12-01T16:56:51.703Z,1.59
2022-12-01T16:59:20.158Z,1.87
2022-12-01T17:01:47.583Z,1.64
2022-12-01T17:04:15.121Z,1.37
2022-12-01T17:06:42.455Z,1.29
2022-12-01T17:09:09.860Z,1.01
2022-12-01T17:11:38.230Z,0.81
2022-12-01T17:14:05.511Z,0.77
2022-12-01T17:16:32.838Z,0.73
2022-12-01T17:19:01.181Z,0.76
2022-12-01T17:21:29.204Z,0.64
2022-12-01T17:23:56.685Z,0.29
2022-12-01T17:26:23.997Z,0.10
2022-12-01T17:28:54.826Z,0.34
2022-12-01T17:31:22.459Z,0.51
2022-12-01T17:33:50.561Z,0.41
2022-12-01T17:36:18.437Z,0.15
2022-12-01T17:38:46.966Z,0.12
2022-12-01T17:41:17.476Z,-0.04
2022-12-01T17:43:44.854Z,0.11
2022-12-01T17:46:12.811Z,0.02
2022-12-01T17:48:43.358Z,0.25
2022-12-01T17:51:12.607Z,0.03
2022-12-01T17:53:40.381Z,-0.19
2022-12-01T17:56:12.507Z,-0.21
2022-12-01T17:58:40.178Z,-0.27
2022-12-01T18:01:14.840Z,-0.36
2022-12-01T18:03:42.566Z,-0.54
2022-12-01T18:06:11.875Z,-0.61
2022-12-01T18:08:39.837Z,-0.22
2022-12-01T18:11:10.750Z,0.05
2022-12-01T18:13:39.908Z,-0.04
2022-12-01T18:16:09.332Z,-0.10
2022-12-01T18:18:37.742Z,-0.63
2022-12-01T18:21:11.502Z,-0.61
2022-12-01T18:23:38.901Z,-0.68
2022-12-01T18:26:15.128Z,-0.78
2022-12-01T18:28:44.088Z,-0.90
2022-12-01T18:31:14.264Z,-0.95
2022-12-01T18:33:43.573Z,-0.99
2022-12-01T18:36:23.439Z,-1.08
2022-12-01T18:38:52.165Z,-1.09
2022-12-01T18:41:19.997Z,-1.28
2022-12-01T18:43:47.583Z,-1.31
2022-12-01T18:46:16.589Z,-1.19
2022-12-01T18:48:45.874Z,-1.23
2022-12-01T18:51:13.333Z,-1.15
2022-12-01T18:53:41.464Z,-0.84
2022-12-01T18:56:11.862Z,-0.93
2022-12-01T18:58:40.616Z,-1.23
2022-12-01T19:01:43.906Z,-1.30
2022-12-01T19:04:12.336Z,-1.16
2022-12-01T19:06:41.517Z,-1.20
2022-12-01T19:09:10.858Z,-1.43
2022-12-01T19:11:40.526Z,-1.46
2022-12-01T19:14:12.062Z,-1.29
2022-12-01T19:16:39.623Z,-1.52
2022-12-01T19:19:07.168Z,-1.39
2022-12-01T19:21:34.551Z,-1.36
2022-12-01T19:24:01.867Z,-1.30
2022-12-01T19:26:29.202Z,-1.28
2022-12-01T19:28:56.500Z,-1.22
2022-12-01T19:31:24.902Z,-1.17
2022-12-01T19:33:54.104Z,-1.17
2022-12-01T19:36:24.031Z,-1.26
2022-12-01T19:38:52.752Z,-1.13
2022-12-01T19:41:20.955Z,-1.31
2022-12-01T19:43:48.638Z,-1.22
2022-12-01T19:46:19.425Z,-1.34
2022-12-01T19:48:47.721Z,-1.10
2022-12-01T19:51:26.505Z,-1.07
2022-12-01T19:53:54.742Z,-1.16
2022-12-01T19:56:22.920Z,-0.80
2022-12-01T19:58:50.778Z,-0.81
2022-12-01T20:01:19.776Z,-0.77
2022-12-01T20:03:52.053Z,-0.66
2022-12-01T20:06:22.344Z,-0.58
2022-12-01T20:08:50.224Z,-0.47
2022-12-01T20:11:18.009Z,-0.47
2022-12-01T20:13:47.924Z,-0.47
2022-12-01T20:16:15.121Z,-0.38
2022-12-01T20:18:42.725Z,-0.41
2022-12-01T20:21:16.696Z,-0.27
2022-12-01T20:23:47.445Z,-0.17
2022-12-01T20:26:16.180Z,-0.08
2022-12-01T20:28:45.243Z,-0.11
2022-12-01T20:31:18.979Z,-0.13
2022-12-01T20:33:46.377Z,0.00
2022-12-01T20:36:15.125Z,0.02
2022-12-01T20:38:42.785Z,0.13
2022-12-01T20:41:11.605Z,0.09
2022-12-01T20:43:39.148Z,0.08
2022-12-01T20:46:07.213Z,0.21
2022-12-01T20:48:35.370Z,0.25
2022-12-01T20:51:05.077Z,0.25
2022-12-01T20:53:32.947Z,0.13
2022-12-01T20:56:04.835Z,0.30
2022-12-01T20:58:37.235Z,0.26
2022-12-01T21:01:23.538Z,0.39
2022-12-01T21:03:51.473Z,0.42
2022-12-01T21:06:19.459Z,0.50
2022-12-01T21:08:48.744Z,0.53
2022-12-01T21:11:19.074Z,0.81
2022-12-01T21:13:46.920Z,0.71
2022-12-01T21:16:14.584Z,0.81
2022-12-01T21:19:06.480Z,0.69
2022-12-01T21:21:42.815Z,0.98
2022-12-01T21:24:13.685Z,1.00
2022-12-01T21:26:48.070Z,0.98
2022-12-01T21:29:26.847Z,0.87
2022-12-01T21:32:00.210Z,0.85
2022-12-01T21:34:28.852Z,0.86
2022-12-01T21:37:00.059Z,0.87
2022-12-01T21:39:30.161Z,0.83
2022-12-01T21:42:06.905Z,0.87
2022-12-01T21:44:37.397Z,0.78
2022-12-01T21:47:23.871Z,0.96
2022-12-01T21:49:54.147Z,0.88
2022-12-01T21:52:39.664Z,0.88
2022-12-01T21:55:16.267Z,1.06
2022-12-01T21:57:46.201Z,1.07
2022-12-01T22:00:31.123Z,1.06
2022-12-01T22:03:07.785Z,0.92
2022-12-01T22:05:40.415Z,1.07
2022-12-01T22:08:07.906Z,1.11
2022-12-01T22:10:56.921Z,1.15
2022-12-01T22:13:52.125Z,1.24
2022-12-01T22:16:29.898Z,1.12
2022-12-01T22:18:59.515Z,1.15
2022-12-01T22:21:41.321Z,1.17
2022-12-01T22:24:08.654Z,1.28
2022-12-01T22:26:44.510Z,1.29
2022-12-01T22:29:28.912Z,1.36
2022-12-01T22:32:14.534Z,1.36
2022-12-01T22:34:49.598Z,1.34
2022-12-01T22:37:43.598Z,1.37
2022-12-01T22:40:32.947Z,1.43
2022-12-01T22:43:15.503Z,1.45
2022-12-01T22:45:53.088Z,1.41
2022-12-01T22:48:32.558Z,1.44
2022-12-01T22:51:14.605Z,1.43
2022-12-01T22:53:43.934Z,1.54
2022-12-01T22:56:41.830Z,1.58
2022-12-01T22:59:23.537Z,1.61
2022-12-01T23:01:56.104Z,1.64
2022-12-01T23:04:26.664Z,1.68
2022-12-01T23:07:26.883Z,1.62
2022-12-01T23:09:58.277Z,1.53
2022-12-01T23:12:33.678Z,1.58
2022-12-01T23:15:21.318Z,1.75
2022-12-01T23:17:49.477Z,1.68
2022-12-01T23:20:34.454Z,1.85
2022-12-01T23:23:05.377Z,1.87
2022-12-01T23:25:35.080Z,1.86
2022-12-01T23:28:06.019Z,1.85
2022-12-01T23:30:36.008Z,1.86
2022-12-01T23:33:11.016Z,1.82
2022-12-01T23:35:46.731Z,1.74
2022-12-01T23:38:20.366Z,1.77
2022-12-01T23:40:49.220Z,1.73
2022-12-01T23:43:24.301Z,2.00
2022-12-01T23:46:04.684Z,2.03
2022-12-01T23:48:37.384Z,2.04
2022-12-01T23:51:11.459Z,1.76
2022-12-01T23:53:40.323Z,1.81
2022-12-01T23:56:18.821Z,1.86
2022-12-01T23:58:46.506Z,1.84
